Time;durP1;ratioP1;P1;durP2;ratioP2;P2;SDS_P1;SDS_P2;PMS_P1;PMS_P2;Temp;Humidity;BMP_temperature;BMP_pressure;BME280_temperature;BME280_humidity;BME280_pressure;Samples;Min_cycle;Max_cycle;Signal;HPM_P1;HPM_P2
2020/12/01 00:02:20;;;;;;;25.85;17.17;;;;;;;;;;5120780;27;20472;-59
2020/12/01 00:04:46;;;;;;;24.13;18.83;;;;;;;;;;5118876;27;20080;-59
2020/12/01 00:07:12;;;;;;;28.10;19.67;;;;;;;;;;5103638;27;20027;-59
2020/12/01 00:09:38;;;;;;;29.17;20.30;;;;;;;;;;5120973;27;20035;-59
2020/12/01 00:12:04;;;;;;;30.08;21.42;;;;;;;;;;5119066;27;20027;-59
2020/12/01 00:14:31;;;;;;;25.02;19.60;;;;;;;;;;5123714;27;20457;-59
2020/12/01 00:16:57;;;;;;;26.30;19.23;;;;;;;;;;5113881;27;20034;-59
2020/12/01 00:19:23;;;;;;;26.30;19.05;;;;;;;;;;5123157;27;20031;-60
2020/12/01 00:21:49;;;;;;;28.20;19.55;;;;;;;;;;5096116;28;20426;-59
2020/12/01 00:24:15;;;;;;;24.67;17.90;;;;;;;;;;5126981;27;20535;-59
2020/12/01 00:26:41;;;;;;;25.10;16.98;;;;;;;;;;5117408;27;20028;-59
2020/12/01 00:29:07;;;;;;;30.05;20.83;;;;;;;;;;5125807;27;20030;-59
2020/12/01 00:31:39;;;;;;;28.00;20.00;;;;;;;;;;5123966;27;20031;-58
2020/12/01 00:34:06;;;;;;;28.90;19.77;;;;;;;;;;5122106;27;20031;-59
2020/12/01 00:36:32;;;;;;;26.63;20.23;;;;;;;;;;5121166;27;20079;-58
2020/12/01 00:38:58;;;;;;;28.15;19.25;;;;;;;;;;5120700;27;20035;-59
2020/12/01 00:41:24;;;;;;;27.90;19.10;;;;;;;;;;5104692;28;20043;-59
2020/12/01 00:43:50;;;;;;;29.07;19.80;;;;;;;;;;5119624;27;20042;-60
2020/12/01 00:46:16;;;;;;;25.27;18.93;;;;;;;;;;5101120;27;20400;-58
2020/12/01 00:48:42;;;;;;;22.80;18.42;;;;;;;;;;5121903;27;20035;-59
2020/12/01 00:51:08;;;;;;;28.98;20.15;;;;;;;;;;5119069;27;20031;-59
2020/12/01 00:53:34;;;;;;;25.35;19.13;;;;;;;;;;5115387;27;20036;-58
2020/12/01 00:56:00;;;;;;;24.92;18.52;;;;;;;;;;5117732;27;20027;-59
2020/12/01 00:58:26;;;;;;;29.85;19.42;;;;;;;;;;5121229;27;20047;-59
2020/12/01 01:00:52;;;;;;;25.27;18.23;;;;;;;;;;5122821;27;20449;-59
2020/12/01 01:03:18;;;;;;;26.52;19.42;;;;;;;;;;5123992;27;20102;-59
2020/12/01 01:05:44;;;;;;;28.80;19.40;;;;;;;;;;5120234;27;20043;-59
2020/12/01 01:08:10;;;;;;;24.70;18.33;;;;;;;;;;5108424;27;20027;-59
2020/12/01 01:10:36;;;;;;;24.13;17.40;;;;;;;;;;5132640;27;20031;-58
2020/12/01 01:13:03;;;;;;;21.67;16.87;;;;;;;;;;5127600;27;20106;-59
2020/12/01 01:15:31;;;;;;;21.38;16.35;;;;;;;;;;5122545;27;20059;-59
2020/12/01 01:17:58;;;;;;;19.88;15.88;;;;;;;;;;5125017;27;20047;-59
2020/12/01 01:20:25;;;;;;;24.55;17.52;;;;;;;;;;5118080;27;20038;-59
2020/12/01 01:22:51;;;;;;;22.83;17.30;;;;;;;;;;5123022;27;20035;-59
2020/12/01 01:25:17;;;;;;;22.23;16.77;;;;;;;;;;5118460;27;20508;-59
2020/12/01 01:27:47;;;;;;;20.77;16.17;;;;;;;;;;5126682;27;20023;-59
2020/12/01 01:30:14;;;;;;;25.38;17.77;;;;;;;;;;5119640;27;20031;-58
2020/12/01 01:32:40;;;;;;;24.17;17.25;;;;;;;;;;5119924;27;20031;-59
2020/12/01 01:35:06;;;;;;;20.88;15.55;;;;;;;;;;5121767;27;20040;-59
2020/12/01 01:37:32;;;;;;;22.90;15.73;;;;;;;;;;5127465;27;20074;-58
2020/12/01 01:39:58;;;;;;;24.03;16.70;;;;;;;;;;5120915;27;20035;-59
2020/12/01 01:42:24;;;;;;;23.40;16.95;;;;;;;;;;5123096;27;20485;-57
2020/12/01 01:44:50;;;;;;;22.63;16.23;;;;;;;;;;5121661;27;20103;-59
2020/12/01 01:47:20;;;;;;;21.13;15.63;;;;;;;;;;5123851;27;20019;-59
2020/12/01 01:49:46;;;;;;;22.70;16.53;;;;;;;;;;5118438;27;20028;-59
2020/12/01 01:52:39;;;;;;;20.37;15.77;;;;;;;;;;5125512;27;20119;-59
2020/12/01 01:55:08;;;;;;;22.30;15.05;;;;;;;;;;5115309;27;20043;-59
2020/12/01 01:57:35;;;;;;;20.37;16.13;;;;;;;;;;5105941;27;20058;-60
2020/12/01 02:00:03;;;;;;;20.73;14.80;;;;;;;;;;5122104;27;20043;-58
2020/12/01 02:02:29;;;;;;;18.13;12.48;;;;;;;;;;5119147;27;20047;-59
2020/12/01 02:04:55;;;;;;;16.60;13.73;;;;;;;;;;5119179;27;20119;-59
2020/12/01 02:07:21;;;;;;;17.50;12.37;;;;;;;;;;5123970;27;20452;-59
2020/12/01 02:09:48;;;;;;;18.20;13.45;;;;;;;;;;5126191;27;20024;-58
2020/12/01 02:12:16;;;;;;;16.63;13.05;;;;;;;;;;5118146;27;20047;-59
2020/12/01 02:14:47;;;;;;;17.65;13.90;;;;;;;;;;5129213;27;20038;-59
2020/12/01 02:17:18;;;;;;;18.13;13.90;;;;;;;;;;5115964;27;20020;-59
2020/12/01 02:19:45;;;;;;;18.38;13.65;;;;;;;;;;5123499;27;20086;-59
2020/12/01 02:22:13;;;;;;;20.83;15.10;;;;;;;;;;5122130;27;20031;-57
2020/12/01 02:24:39;;;;;;;18.23;15.43;;;;;;;;;;5103919;27;20109;-57
2020/12/01 02:27:05;;;;;;;20.77;15.68;;;;;;;;;;5114973;27;20056;-58
2020/12/01 02:29:33;;;;;;;23.70;15.88;;;;;;;;;;5120936;27;20038;-58
2020/12/01 02:31:59;;;;;;;20.60;15.07;;;;;;;;;;5119300;27;20445;-58
2020/12/01 02:34:31;;;;;;;19.05;14.82;;;;;;;;;;5123377;27;20027;-58
2020/12/01 02:36:57;;;;;;;20.53;15.43;;;;;;;;;;5121140;27;20016;-58
2020/12/01 02:39:25;;;;;;;24.13;16.13;;;;;;;;;;5121550;27;20047;-59
2020/12/01 02:41:53;;;;;;;23.45;17.17;;;;;;;;;;5123973;27;20031;-57
2020/12/01 02:44:19;;;;;;;21.23;15.73;;;;;;;;;;5125847;27;20031;-59
2020/12/01 02:46:45;;;;;;;22.08;16.58;;;;;;;;;;5120712;27;20082;-59
2020/12/01 02:49:11;;;;;;;22.70;17.30;;;;;;;;;;5105059;27;20357;-59
2020/12/01 02:51:37;;;;;;;23.77;17.15;;;;;;;;;;5123632;27;20053;-59
2020/12/01 02:54:03;;;;;;;25.27;18.17;;;;;;;;;;5115730;27;20476;-60
2020/12/01 02:56:29;;;;;;;28.35;20.08;;;;;;;;;;5127108;27;20026;-59
2020/12/01 02:58:55;;;;;;;31.73;20.88;;;;;;;;;;5119580;27;20044;-59
2020/12/01 03:01:21;;;;;;;30.85;21.60;;;;;;;;;;5126304;27;20484;-59
2020/12/01 03:03:47;;;;;;;30.70;21.53;;;;;;;;;;5119837;27;20027;-59
2020/12/01 03:06:15;;;;;;;32.47;21.20;;;;;;;;;;5119467;27;20028;-59
2020/12/01 03:08:41;;;;;;;28.87;21.00;;;;;;;;;;5114905;27;20040;-60
2020/12/01 03:11:08;;;;;;;32.57;21.90;;;;;;;;;;5124491;27;20072;-58
2020/12/01 03:13:34;;;;;;;26.90;19.85;;;;;;;;;;5123024;27;20022;-57
2020/12/01 03:16:10;;;;;;;32.50;22.40;;;;;;;;;;5123051;27;20038;-59
2020/12/01 03:18:37;;;;;;;29.63;21.80;;;;;;;;;;5115736;27;20051;-59
2020/12/01 03:21:04;;;;;;;30.90;22.63;;;;;;;;;;5118074;27;20024;-59
2020/12/01 03:23:30;;;;;;;31.88;22.50;;;;;;;;;;5125461;27;20022;-59
2020/12/01 03:25:56;;;;;;;28.85;21.67;;;;;;;;;;5103010;27;20119;-58
2020/12/01 03:28:22;;;;;;;33.28;23.20;;;;;;;;;;5107613;28;20445;-58
2020/12/01 03:30:48;;;;;;;28.20;21.67;;;;;;;;;;5118555;27;20035;-58
2020/12/01 03:33:14;;;;;;;30.50;22.07;;;;;;;;;;5119997;27;20032;-58
2020/12/01 03:35:40;;;;;;;29.83;21.25;;;;;;;;;;5119408;27;20392;-58
2020/12/01 03:38:06;;;;;;;29.57;21.43;;;;;;;;;;5123766;27;20023;-58
2020/12/01 03:40:32;;;;;;;31.92;22.38;;;;;;;;;;5114296;27;20113;-58
2020/12/01 03:42:58;;;;;;;31.63;22.57;;;;;;;;;;5123710;27;20019;-58
2020/12/01 03:45:25;;;;;;;31.80;23.00;;;;;;;;;;5115597;27;20066;-59
2020/12/01 03:47:53;;;;;;;36.83;24.10;;;;;;;;;;5120781;27;20057;-58
2020/12/01 03:50:19;;;;;;;32.97;23.17;;;;;;;;;;5118332;27;20027;-58
2020/12/01 03:52:45;;;;;;;32.50;23.23;;;;;;;;;;5119476;27;20066;-59
2020/12/01 03:55:11;;;;;;;33.33;22.83;;;;;;;;;;5118051;27;20062;-59
2020/12/01 03:57:40;;;;;;;30.40;21.80;;;;;;;;;;5100660;28;20088;-58
2020/12/01 04:00:14;;;;;;;30.67;22.73;;;;;;;;;;5117307;27;20035;-57
2020/12/01 04:02:40;;;;;;;33.60;23.40;;;;;;;;;;5123724;27;20488;-58
2020/12/01 04:05:07;;;;;;;32.27;22.63;;;;;;;;;;5122066;27;20023;-58
2020/12/01 04:07:33;;;;;;;33.13;24.03;;;;;;;;;;5124002;27;20050;-57
2020/12/01 04:10:00;;;;;;;33.10;23.03;;;;;;;;;;5122415;27;20060;-59
2020/12/01 04:12:27;;;;;;;32.33;23.60;;;;;;;;;;5116840;27;20114;-57
2020/12/01 04:14:53;;;;;;;34.87;24.40;;;;;;;;;;5120750;27;20483;-57
2020/12/01 04:17:19;;;;;;;32.00;22.23;;;;;;;;;;5119340;27;20031;-59
2020/12/01 04:19:45;;;;;;;28.13;19.97;;;;;;;;;;5117198;27;20465;-59
2020/12/01 04:22:11;;;;;;;25.87;19.50;;;;;;;;;;5119199;27;20031;-60
2020/12/01 04:24:39;;;;;;;32.53;21.67;;;;;;;;;;5117046;27;20027;-59
2020/12/01 04:27:05;;;;;;;27.00;20.87;;;;;;;;;;5114354;27;20489;-59
2020/12/01 04:29:32;;;;;;;30.03;21.73;;;;;;;;;;5121553;27;20022;-57
2020/12/01 04:31:58;;;;;;;32.77;21.77;;;;;;;;;;5118784;27;20027;-60
2020/12/01 04:34:24;;;;;;;31.80;22.30;;;;;;;;;;5122374;27;20029;-58
2020/12/01 04:36:50;;;;;;;29.93;22.13;;;;;;;;;;5114967;27;20051;-59
2020/12/01 04:39:16;;;;;;;30.57;21.27;;;;;;;;;;5121544;27;20036;-57
2020/12/01 04:41:42;;;;;;;29.30;21.27;;;;;;;;;;5098706;27;20023;-59
2020/12/01 04:44:20;;;;;;;29.47;21.83;;;;;;;;;;5128606;27;20026;-59
2020/12/01 04:46:46;;;;;;;26.30;20.77;;;;;;;;;;5119131;27;20135;-59
2020/12/01 04:49:24;;;;;;;30.37;22.40;;;;;;;;;;5108699;27;20032;-57
2020/12/01 04:51:50;;;;;;;28.40;21.13;;;;;;;;;;5121364;27;20507;-60
2020/12/01 04:54:22;;;;;;;33.00;21.57;;;;;;;;;;5129805;27;20019;-59
2020/12/01 04:56:54;;;;;;;31.92;21.40;;;;;;;;;;5124244;27;20024;-58
2020/12/01 04:59:29;;;;;;;30.15;20.85;;;;;;;;;;5120264;27;20039;-59
2020/12/01 05:01:55;;;;;;;;;;;;;;;;;;5121925;27;20183;-58
2020/12/01 05:04:28;;;;;;;25.63;19.20;;;;;;;;;;5123511;27;19919;-58
2020/12/01 05:09:23;;;;;;;28.60;20.33;;;;;;;;;;5116827;27;20039;-58
2020/12/01 05:11:55;;;;;;;29.30;20.50;;;;;;;;;;5129585;27;20500;-59
2020/12/01 05:14:21;;;;;;;28.33;19.30;;;;;;;;;;5107484;27;20050;-59
2020/12/01 05:16:47;;;;;;;29.40;20.73;;;;;;;;;;5121296;27;20393;-57
2020/12/01 05:19:39;;;;;;;25.93;19.93;;;;;;;;;;5118921;27;20150;-57
2020/12/01 05:22:05;;;;;;;27.25;20.88;;;;;;;;;;5119958;27;20032;-59
2020/12/01 05:24:58;;;;;;;26.90;20.43;;;;;;;;;;5124123;27;20110;-59
2020/12/01 05:27:26;;;;;;;28.20;19.53;;;;;;;;;;5120307;27;20070;-59
2020/12/01 05:29:52;;;;;;;30.97;20.70;;;;;;;;;;5116156;27;20020;-58
2020/12/01 05:32:48;;;;;;;29.17;21.37;;;;;;;;;;5128277;27;20023;-60
2020/12/01 05:35:14;;;;;;;30.95;21.42;;;;;;;;;;5103319;27;20167;-58
2020/12/01 05:37:40;;;;;;;29.97;20.67;;;;;;;;;;5125482;27;20454;-59
2020/12/01 05:40:08;;;;;;;30.23;20.40;;;;;;;;;;5120885;27;20038;-59
2020/12/01 05:42:36;;;;;;;34.30;21.07;;;;;;;;;;5121602;27;20015;-59
2020/12/01 05:45:03;;;;;;;30.53;21.73;;;;;;;;;;5121264;27;20469;-58
2020/12/01 05:47:37;;;;;;;31.33;21.40;;;;;;;;;;5125266;27;20368;-59
2020/12/01 05:50:06;;;;;;;26.20;20.67;;;;;;;;;;5123003;27;20076;-59
2020/12/01 05:52:42;;;;;;;28.73;20.83;;;;;;;;;;5126142;27;20034;-59
2020/12/01 05:55:11;;;;;;;27.60;20.43;;;;;;;;;;5119355;27;20023;-59
2020/12/01 05:57:37;;;;;;;30.83;21.77;;;;;;;;;;5125282;27;20023;-59
2020/12/01 06:00:07;;;;;;;29.73;21.37;;;;;;;;;;5128357;27;20027;-58
2020/12/01 06:02:33;;;;;;;29.37;20.50;;;;;;;;;;5128004;27;20027;-59
2020/12/01 06:05:00;;;;;;;30.17;20.73;;;;;;;;;;5123114;27;20373;-59
2020/12/01 06:07:27;;;;;;;30.67;21.77;;;;;;;;;;5133587;27;20023;-59
2020/12/01 06:10:12;;;;;;;31.13;21.70;;;;;;;;;;5125342;27;20495;-58
2020/12/01 06:12:50;;;;;;;26.40;20.42;;;;;;;;;;5129394;27;20019;-59
2020/12/01 06:15:20;;;;;;;29.90;21.30;;;;;;;;;;5119586;27;20038;-59
2020/12/01 06:17:46;;;;;;;31.07;21.00;;;;;;;;;;5123304;27;20016;-58
2020/12/01 06:20:27;;;;;;;31.63;21.23;;;;;;;;;;5103996;27;20031;-60
2020/12/01 06:23:07;;;;;;;30.60;20.27;;;;;;;;;;5126203;27;20042;-59
2020/12/01 06:25:41;;;;;;;30.40;21.57;;;;;;;;;;5121696;27;20476;-60
2020/12/01 06:28:22;;;;;;;29.50;20.83;;;;;;;;;;5123376;27;20035;-59
2020/12/01 06:30:51;;;;;;;28.10;19.07;;;;;;;;;;5119105;27;20384;-60
2020/12/01 06:33:17;;;;;;;31.50;21.17;;;;;;;;;;5122020;27;20027;-58
2020/12/01 06:35:55;;;;;;;29.87;21.57;;;;;;;;;;5119586;27;20030;-59
2020/12/01 06:38:40;;;;;;;31.50;21.67;;;;;;;;;;5128017;27;20030;-60
2020/12/01 06:41:12;;;;;;;28.10;20.00;;;;;;;;;;5123506;27;20023;-58
2020/12/01 06:43:43;;;;;;;29.13;20.87;;;;;;;;;;5121041;27;20088;-59
2020/12/01 06:46:24;;;;;;;34.37;22.97;;;;;;;;;;5125155;27;20076;-60
2020/12/01 06:48:50;;;;;;;31.93;22.17;;;;;;;;;;5121383;27;20023;-59
2020/12/01 06:51:18;;;;;;;40.37;23.20;;;;;;;;;;5120624;27;20075;-55
2020/12/01 06:53:44;;;;;;;34.77;21.63;;;;;;;;;;5126914;27;20076;-56
2020/12/01 06:56:17;;;;;;;32.70;23.23;;;;;;;;;;5119436;27;20192;-57
2020/12/01 06:58:44;;;;;;;36.97;24.10;;;;;;;;;;5099998;27;20130;-56
2020/12/01 07:01:16;;;;;;;32.08;22.30;;;;;;;;;;5117819;27;20023;-57
2020/12/01 07:03:42;;;;;;;30.57;21.77;;;;;;;;;;5122050;27;20035;-57
2020/12/01 07:06:23;;;;;;;32.07;23.10;;;;;;;;;;5126296;27;20035;-58
2020/12/01 07:08:50;;;;;;;30.27;22.17;;;;;;;;;;5122346;27;20039;-56
2020/12/01 07:11:25;;;;;;;31.27;22.97;;;;;;;;;;5119472;27;20538;-57
2020/12/01 07:13:54;;;;;;;30.60;21.83;;;;;;;;;;5117117;27;20032;-58
2020/12/01 07:16:28;;;;;;;26.77;18.93;;;;;;;;;;5124318;27;20035;-57
2020/12/01 07:19:03;;;;;;;33.30;19.40;;;;;;;;;;5116040;27;20043;-57
2020/12/01 07:21:58;;;;;;;25.73;19.90;;;;;;;;;;5121911;27;20107;-57
2020/12/01 07:24:39;;;;;;;25.30;19.38;;;;;;;;;;5110048;27;20478;-57
2020/12/01 07:27:15;;;;;;;29.80;19.88;;;;;;;;;;5120645;27;20094;-58
2020/12/01 07:29:50;;;;;;;31.75;20.92;;;;;;;;;;5119392;27;20492;-57
2020/12/01 07:32:21;;;;;;;26.17;19.70;;;;;;;;;;5124552;27;20102;-57
2020/12/01 07:35:24;;;;;;;29.37;20.17;;;;;;;;;;5118925;27;20030;-58
2020/12/01 07:37:53;;;;;;;27.00;19.60;;;;;;;;;;5104622;27;20461;-58
2020/12/01 07:40:24;;;;;;;29.27;19.70;;;;;;;;;;5104743;27;20399;-58
2020/12/01 07:42:56;;;;;;;26.37;19.20;;;;;;;;;;5127574;27;20058;-58
2020/12/01 07:45:22;;;;;;;30.83;20.77;;;;;;;;;;5117713;27;20072;-58
2020/12/01 07:47:55;;;;;;;29.27;21.87;;;;;;;;;;5097315;27;20112;-59
2020/12/01 07:50:21;;;;;;;31.07;22.47;;;;;;;;;;5118534;27;20031;-59
2020/12/01 07:52:47;;;;;;;35.28;23.58;;;;;;;;;;5102567;27;20504;-58
2020/12/01 07:55:31;;;;;;;32.47;23.47;;;;;;;;;;5113379;27;20034;-58
2020/12/01 07:58:05;;;;;;;32.03;23.03;;;;;;;;;;5119273;27;20062;-59
2020/12/01 08:00:31;;;;;;;32.43;22.27;;;;;;;;;;5122014;27;20031;-57
2020/12/01 08:03:14;;;;;;;34.10;22.40;;;;;;;;;;5115217;27;20534;-56
2020/12/01 08:05:40;;;;;;;33.97;22.57;;;;;;;;;;5120453;27;20032;-57
2020/12/01 08:08:06;;;;;;;31.27;22.20;;;;;;;;;;5119422;27;20072;-52
2020/12/01 08:13:36;;;;;;;33.63;22.13;;;;;;;;;;5118372;27;20039;-57
2020/12/01 08:16:14;;;;;;;32.93;22.40;;;;;;;;;;5122475;27;20449;-57
2020/12/01 08:18:40;;;;;;;34.30;24.00;;;;;;;;;;5128917;27;20560;-54
2020/12/01 08:21:07;;;;;;;34.43;22.77;;;;;;;;;;5126746;27;20023;-55
2020/12/01 08:23:33;;;;;;;40.07;24.53;;;;;;;;;;5106168;27;20047;-50
2020/12/01 08:26:03;;;;;;;34.43;24.07;;;;;;;;;;5125787;27;20043;-53
2020/12/01 08:28:31;;;;;;;31.67;22.57;;;;;;;;;;5128368;27;20019;-55
2020/12/01 08:31:20;;;;;;;40.17;23.90;;;;;;;;;;5118854;27;20407;-55
2020/12/01 08:34:13;;;;;;;34.27;21.77;;;;;;;;;;5123441;27;20047;-54
2020/12/01 08:36:54;;;;;;;35.33;23.33;;;;;;;;;;5117708;27;20433;-55
2020/12/01 08:39:39;;;;;;;37.55;21.88;;;;;;;;;;5125216;27;20042;-55
2020/12/01 08:42:20;;;;;;;34.10;21.25;;;;;;;;;;5119253;27;20031;-53
2020/12/01 08:44:46;;;;;;;30.07;21.27;;;;;;;;;;5123613;27;20027;-55
2020/12/01 08:47:12;;;;;;;30.87;20.67;;;;;;;;;;5113854;27;20084;-55
2020/12/01 08:49:43;;;;;;;33.40;22.37;;;;;;;;;;5125211;27;20102;-53
2020/12/01 08:52:28;;;;;;;34.42;21.48;;;;;;;;;;5116489;27;20038;-54
2020/12/01 08:54:56;;;;;;;31.98;20.92;;;;;;;;;;5122434;27;20019;-55
2020/12/01 08:57:33;;;;;;;29.77;21.60;;;;;;;;;;5120593;27;20027;-54
2020/12/01 09:00:05;;;;;;;31.50;22.13;;;;;;;;;;5119636;27;20433;-54
2020/12/01 09:02:40;;;;;;;30.67;20.60;;;;;;;;;;5114790;27;20092;-55
2020/12/01 09:05:06;;;;;;;30.80;20.45;;;;;;;;;;5122785;27;20126;-51
2020/12/01 09:07:42;;;;;;;33.67;21.20;;;;;;;;;;5113574;27;20073;-51
2020/12/01 09:10:22;;;;;;;33.03;20.97;;;;;;;;;;5121450;27;20020;-50
2020/12/01 09:13:09;;;;;;;34.87;21.47;;;;;;;;;;5117816;27;20079;-51
2020/12/01 09:23:32;;;;;;;36.07;22.47;;;;;;;;;;5118702;27;20054;-50
2020/12/01 09:25:59;;;;;;;33.77;21.60;;;;;;;;;;5120700;27;20069;-53
2020/12/01 09:28:26;;;;;;;33.43;22.03;;;;;;;;;;5099188;27;20055;-52
2020/12/01 09:30:53;;;;;;;35.27;22.67;;;;;;;;;;5124909;27;20031;-52
2020/12/01 09:33:21;;;;;;;37.10;23.53;;;;;;;;;;5125224;27;20027;-51
2020/12/01 09:35:48;;;;;;;33.77;23.67;;;;;;;;;;5125484;27;20535;-55
2020/12/01 09:38:14;;;;;;;36.37;23.33;;;;;;;;;;5121156;27;20038;-52
2020/12/01 09:40:41;;;;;;;34.27;23.67;;;;;;;;;;5123009;27;20046;-53
2020/12/01 09:43:23;;;;;;;31.00;22.67;;;;;;;;;;5129566;27;20027;-52
2020/12/01 09:45:52;;;;;;;35.87;23.20;;;;;;;;;;5119099;27;20072;-50
2020/12/01 09:50:46;;;;;;;29.97;20.77;;;;;;;;;;5120395;27;20039;-52
2020/12/01 10:09:25;;;;;;;25.27;18.83;;;;;;;;;;5130431;27;20334;-53
2020/12/01 10:12:29;;;;;;;30.47;20.33;;;;;;;;;;5120336;27;20027;-55
2020/12/01 10:26:01;;;;;;;32.95;23.73;;;;;;;;;;5112891;27;20045;-54
2020/12/01 10:36:27;;;;;;;37.53;23.50;;;;;;;;;;5115282;27;20042;-51
2020/12/01 10:38:54;;;;;;;35.43;24.33;;;;;;;;;;5117946;27;20047;-53
2020/12/01 10:41:27;;;;;;;36.07;23.73;;;;;;;;;;5118348;27;20544;-51
2020/12/01 10:43:53;;;;;;;36.10;25.70;;;;;;;;;;5116126;27;20133;-51
2020/12/01 10:46:19;;;;;;;36.23;26.70;;;;;;;;;;5104753;27;20037;-51
2020/12/01 10:48:45;;;;;;;35.43;25.13;;;;;;;;;;5128360;27;20035;-50
2020/12/01 10:51:11;;;;;;;36.17;26.27;;;;;;;;;;5097401;27;20038;-50
2020/12/01 10:53:37;;;;;;;36.03;25.77;;;;;;;;;;5118442;27;20476;-51
2020/12/01 10:56:03;;;;;;;31.47;24.37;;;;;;;;;;5120101;27;20023;-50
2020/12/01 10:58:29;;;;;;;31.53;21.07;;;;;;;;;;5127897;27;20050;-49
2020/12/01 11:00:55;;;;;;;30.90;20.77;;;;;;;;;;5121655;27;20032;-53
2020/12/01 11:03:21;;;;;;;30.53;21.60;;;;;;;;;;5119895;27;20092;-53
2020/12/01 11:05:47;;;;;;;33.43;21.20;;;;;;;;;;5123215;27;20133;-52
2020/12/01 11:08:14;;;;;;;27.07;21.13;;;;;;;;;;5100174;27;20039;-55
2020/12/01 11:10:40;;;;;;;30.13;20.27;;;;;;;;;;5120436;27;20023;-55
2020/12/01 11:13:08;;;;;;;31.90;21.37;;;;;;;;;;5116203;27;20076;-51
2020/12/01 11:15:34;;;;;;;29.13;20.87;;;;;;;;;;5118899;27;20114;-50
2020/12/01 11:18:00;;;;;;;33.00;23.07;;;;;;;;;;5121277;27;20488;-51
2020/12/01 11:20:26;;;;;;;30.17;21.27;;;;;;;;;;5117779;27;20035;-53
2020/12/01 11:22:52;;;;;;;26.13;21.10;;;;;;;;;;5117055;27;20027;-53
2020/12/01 11:25:21;;;;;;;27.97;21.10;;;;;;;;;;5116074;27;20369;-53
2020/12/01 11:27:47;;;;;;;29.10;20.43;;;;;;;;;;5116915;27;20051;-53
2020/12/01 11:30:14;;;;;;;28.83;21.50;;;;;;;;;;5118907;27;20084;-52
2020/12/01 11:32:40;;;;;;;29.17;21.70;;;;;;;;;;5112116;27;20118;-52
2020/12/01 11:35:06;;;;;;;30.53;21.60;;;;;;;;;;5123082;27;20022;-53
2020/12/01 11:37:33;;;;;;;33.50;22.30;;;;;;;;;;5117821;27;20488;-50
2020/12/01 11:39:59;;;;;;;29.07;20.87;;;;;;;;;;5124555;27;20388;-49
2020/12/01 11:42:25;;;;;;;31.37;21.27;;;;;;;;;;5124539;27;20038;-53
2020/12/01 11:44:51;;;;;;;27.17;19.73;;;;;;;;;;5121105;27;20035;-53
2020/12/01 11:47:17;;;;;;;27.77;19.07;;;;;;;;;;5123535;27;20023;-53
2020/12/01 11:49:43;;;;;;;30.47;19.37;;;;;;;;;;5127000;27;20615;-52
2020/12/01 11:52:09;;;;;;;33.37;20.20;;;;;;;;;;5121709;27;20495;-50
2020/12/01 11:54:37;;;;;;;27.90;19.13;;;;;;;;;;5103508;28;20604;-52
2020/12/01 11:57:03;;;;;;;27.13;19.63;;;;;;;;;;5125441;27;20011;-49
2020/12/01 11:59:29;;;;;;;24.87;18.23;;;;;;;;;;5111425;27;20043;-53
2020/12/01 12:01:56;;;;;;;29.63;18.40;;;;;;;;;;5123869;27;20546;-50
2020/12/01 12:04:22;;;;;;;28.53;19.03;;;;;;;;;;5119303;27;20023;-51
2020/12/01 12:06:48;;;;;;;24.60;17.90;;;;;;;;;;5122583;27;20024;-52
2020/12/01 12:09:14;;;;;;;27.50;19.07;;;;;;;;;;5112624;27;20514;-51
2020/12/01 12:11:40;;;;;;;30.13;19.53;;;;;;;;;;5127906;27;20032;-54
2020/12/01 12:14:07;;;;;;;32.03;18.93;;;;;;;;;;5101512;27;20053;-53
2020/12/01 12:16:33;;;;;;;24.10;17.93;;;;;;;;;;5127036;27;20065;-54
2020/12/01 12:19:00;;;;;;;25.83;18.37;;;;;;;;;;5120837;27;20075;-54
2020/12/01 12:21:26;;;;;;;25.77;18.83;;;;;;;;;;5117110;27;20483;-54
2020/12/01 12:23:52;;;;;;;28.57;17.17;;;;;;;;;;5120826;27;20374;-54
2020/12/01 12:26:18;;;;;;;24.87;17.00;;;;;;;;;;5115520;27;20623;-57
2020/12/01 12:28:44;;;;;;;24.37;17.10;;;;;;;;;;5125185;27;20538;-52
2020/12/01 12:31:12;;;;;;;23.97;15.80;;;;;;;;;;5099418;27;20136;-49
2020/12/01 12:33:38;;;;;;;28.07;16.73;;;;;;;;;;5119605;27;20484;-54
2020/12/01 12:36:04;;;;;;;24.17;16.30;;;;;;;;;;5121648;27;20027;-49
2020/12/01 12:38:31;;;;;;;22.37;15.73;;;;;;;;;;5125397;27;20034;-52
2020/12/01 12:40:57;;;;;;;32.13;18.50;;;;;;;;;;5118461;27;20037;-52
2020/12/01 12:43:26;;;;;;;23.97;16.97;;;;;;;;;;5122091;27;20027;-54
2020/12/01 12:45:52;;;;;;;26.07;17.77;;;;;;;;;;5118028;27;20051;-51
2020/12/01 12:48:20;;;;;;;22.80;16.53;;;;;;;;;;5120770;27;20055;-54
2020/12/01 12:50:46;;;;;;;25.20;16.13;;;;;;;;;;5116856;27;20027;-48
2020/12/01 12:53:12;;;;;;;29.90;16.50;;;;;;;;;;5115057;27;20125;-53
2020/12/01 12:55:38;;;;;;;23.80;17.07;;;;;;;;;;5117526;27;20033;-50
2020/12/01 12:58:04;;;;;;;26.53;17.63;;;;;;;;;;5121097;27;20040;-54
2020/12/01 13:00:33;;;;;;;28.87;18.40;;;;;;;;;;5120049;27;20036;-54
2020/12/01 13:03:00;;;;;;;27.63;18.40;;;;;;;;;;5122727;27;20053;-53
2020/12/01 13:05:26;;;;;;;26.37;17.33;;;;;;;;;;5125662;27;20034;-52
2020/12/01 13:07:52;;;;;;;27.20;16.93;;;;;;;;;;5126346;27;20099;-53
2020/12/01 13:10:18;;;;;;;26.90;18.30;;;;;;;;;;5126683;27;20430;-51
2020/12/01 13:12:44;;;;;;;25.43;16.47;;;;;;;;;;5122320;27;20027;-51
2020/12/01 13:15:11;;;;;;;23.60;17.10;;;;;;;;;;5127766;27;20027;-53
2020/12/01 13:17:40;;;;;;;24.63;17.80;;;;;;;;;;5100617;27;20137;-52
2020/12/01 13:20:06;;;;;;;27.90;17.30;;;;;;;;;;5122315;27;20469;-55
2020/12/01 13:22:32;;;;;;;27.47;17.67;;;;;;;;;;5118002;27;20020;-51
2020/12/01 13:24:58;;;;;;;24.33;16.13;;;;;;;;;;5127885;27;20027;-54
2020/12/01 13:27:24;;;;;;;29.97;17.57;;;;;;;;;;5119650;27;20023;-51
2020/12/01 13:29:50;;;;;;;22.97;15.50;;;;;;;;;;5123187;27;20491;-53
2020/12/01 13:32:16;;;;;;;21.60;15.87;;;;;;;;;;5122017;27;20039;-50
2020/12/01 13:34:42;;;;;;;26.10;16.93;;;;;;;;;;5126136;27;20050;-52
2020/12/01 13:37:08;;;;;;;21.60;15.53;;;;;;;;;;5127331;27;20043;-52
2020/12/01 13:39:34;;;;;;;23.90;16.27;;;;;;;;;;5115445;27;20036;-54
2020/12/01 13:42:00;;;;;;;24.83;16.60;;;;;;;;;;5125981;27;20034;-52
2020/12/01 13:44:26;;;;;;;26.43;17.53;;;;;;;;;;5116969;27;20042;-50
2020/12/01 13:46:53;;;;;;;34.70;19.80;;;;;;;;;;5130161;27;20023;-56
2020/12/01 13:49:19;;;;;;;31.00;17.67;;;;;;;;;;5119877;27;20027;-53
2020/12/01 13:51:45;;;;;;;23.23;16.03;;;;;;;;;;5126947;27;20027;-52
2020/12/01 13:54:11;;;;;;;26.77;16.63;;;;;;;;;;5119551;27;20031;-52
2020/12/01 13:56:37;;;;;;;25.23;17.43;;;;;;;;;;5129129;27;20027;-54
2020/12/01 13:59:03;;;;;;;24.07;17.33;;;;;;;;;;5119513;27;20050;-52
2020/12/01 14:01:29;;;;;;;26.30;17.97;;;;;;;;;;5126912;27;20045;-54
2020/12/01 14:03:55;;;;;;;25.37;17.37;;;;;;;;;;5116375;27;20102;-55
2020/12/01 14:06:22;;;;;;;30.20;17.43;;;;;;;;;;5124108;27;20015;-53
2020/12/01 14:08:48;;;;;;;25.90;18.53;;;;;;;;;;5124896;27;20043;-55
2020/12/01 14:11:16;;;;;;;27.83;17.77;;;;;;;;;;5126435;27;20119;-54
2020/12/01 14:13:42;;;;;;;26.07;17.97;;;;;;;;;;5121971;27;20038;-54
2020/12/01 14:16:08;;;;;;;28.17;19.60;;;;;;;;;;5124111;27;20023;-54
2020/12/01 14:18:34;;;;;;;26.53;19.10;;;;;;;;;;5119854;27;20464;-53
2020/12/01 14:21:01;;;;;;;26.37;19.17;;;;;;;;;;5118749;27;20023;-54
2020/12/01 14:23:28;;;;;;;28.37;19.57;;;;;;;;;;5132062;27;20054;-56
2020/12/01 14:25:54;;;;;;;25.43;18.23;;;;;;;;;;5118649;27;20525;-54
2020/12/01 14:28:21;;;;;;;26.37;19.03;;;;;;;;;;5119625;27;20076;-54
2020/12/01 14:30:48;;;;;;;28.87;20.03;;;;;;;;;;5119959;27;20027;-49
2020/12/01 14:33:14;;;;;;;28.57;18.17;;;;;;;;;;5121179;27;20498;-53
2020/12/01 14:35:40;;;;;;;24.27;17.47;;;;;;;;;;5115255;27;20058;-52
2020/12/01 14:38:08;;;;;;;25.53;18.90;;;;;;;;;;5121140;27;20023;-50
2020/12/01 14:40:35;;;;;;;26.87;18.90;;;;;;;;;;5123726;27;20389;-51
2020/12/01 14:43:02;;;;;;;25.80;17.63;;;;;;;;;;5118429;27;20035;-50
2020/12/01 14:45:28;;;;;;;25.67;19.90;;;;;;;;;;5100147;27;20119;-50
2020/12/01 14:48:13;;;;;;;28.20;19.37;;;;;;;;;;5124133;27;20050;-51
2020/12/01 14:50:42;;;;;;;28.60;20.20;;;;;;;;;;5113709;27;20027;-53
2020/12/01 14:53:08;;;;;;;29.97;19.20;;;;;;;;;;5121605;27;20042;-55
2020/12/01 14:55:43;;;;;;;28.17;19.40;;;;;;;;;;5117114;27;20101;-53
2020/12/01 14:58:09;;;;;;;29.73;18.60;;;;;;;;;;5117059;27;20066;-55
2020/12/01 15:00:42;;;;;;;25.47;18.13;;;;;;;;;;5120178;27;20035;-54
2020/12/01 15:03:20;;;;;;;24.40;17.83;;;;;;;;;;5123319;27;20450;-53
2020/12/01 15:06:22;;;;;;;24.37;18.77;;;;;;;;;;5100547;27;20391;-54
2020/12/01 15:09:13;;;;;;;28.33;18.33;;;;;;;;;;5062699;28;20021;-54
2020/12/01 15:11:44;;;;;;;30.23;18.77;;;;;;;;;;5120690;27;20049;-54
2020/12/01 15:14:11;;;;;;;30.20;18.50;;;;;;;;;;5122953;27;20086;-53
2020/12/01 15:16:56;;;;;;;26.40;17.73;;;;;;;;;;5123483;27;20481;-54
2020/12/01 15:19:23;;;;;;;25.50;17.60;;;;;;;;;;5118349;27;20032;-50
2020/12/01 15:21:51;;;;;;;23.50;17.93;;;;;;;;;;5118984;27;20098;-55